Login to view Products
 
Saturday, August 18, 2018 (05:12 UTC)
Abu Dhabi International Airport
Last Updated: 18-Aug-2018 (05:11Z)
Wind Dir/Speed: SE at 07 kt
Temperature: 34.8°C
Rel. Humidity: 60 %
Pressure: 997.4 hPa
Visibility: 6000 m
ACTUALS:
  • METAR OMAA 180500Z 15011KT 6000 NSC 34/27 Q0997 NOSIG
  • TAF OMAA 180500Z 1806/1912 16009KT 8000 NSC BECMG 1808/1810 32012KT BECMG 1819/1821 VRB02KT PROB40 1823/1905 4000 HZ PROB30 1902/1904 1000 BCFG BKN003 BECMG 1907/1909 33014KT=
D:\Input Parser\Destinations\Final\05\OMAAL06120500631580759.txt